Time;durP1;ratioP1;P1;durP2;ratioP2;P2;SDS_P1;SDS_P2;PMS_P1;PMS_P2;Temp;Humidity;BMP_temperature;BMP_pressure;BME280_temperature;BME280_humidity;BME280_pressure;Samples;Min_cycle;Max_cycle;Signal;HPM_P1;HPM_P2
2020/12/08 00:02:41;;;;;;;9.68;7.50;;;;;;;1.21;84.61;97735.69;2021646;80;20314;-82
2020/12/08 00:05:43;;;;;;;11.21;8.15;;;;;;;1.23;84.84;97739.09;2023062;80;20326;-82
2020/12/08 00:08:45;;;;;;;11.57;7.61;;;;;;;1.23;84.89;97739.09;2024740;80;20371;-82
2020/12/08 00:11:47;;;;;;;8.73;7.11;;;;;;;1.24;85.03;97740.81;2021523;80;20341;-82
2020/12/08 00:14:49;;;;;;;8.59;7.14;;;;;;;1.23;85.02;97734.00;2022713;80;20352;-82
2020/12/08 00:17:52;;;;;;;8.59;7.06;;;;;;;1.19;84.89;97728.00;2020931;80;20327;-82
2020/12/08 00:20:54;;;;;;;9.15;7.03;;;;;;;1.19;85.10;97728.00;2023213;80;20529;-81
2020/12/08 00:23:55;;;;;;;10.00;7.04;;;;;;;1.18;85.14;97728.00;2023534;80;20340;-82
2020/12/08 00:26:57;;;;;;;9.10;7.13;;;;;;;1.19;85.23;97725.44;2021150;80;20330;-82
2020/12/08 00:29:59;;;;;;;8.50;6.76;;;;;;;1.19;85.18;97730.56;2023647;80;20332;-82
2020/12/08 00:33:03;;;;;;;9.34;7.04;;;;;;;1.19;85.17;97728.00;2069827;69;20205;-83
2020/12/08 00:36:05;;;;;;;9.77;7.15;;;;;;;1.20;85.26;97724.59;2022525;80;20338;-82
2020/12/08 00:39:07;;;;;;;9.29;7.63;;;;;;;1.21;85.25;97731.44;2023435;80;20408;-82
2020/12/08 00:42:10;;;;;;;10.73;6.59;;;;;;;1.19;85.21;97727.16;2023385;80;20342;-81
2020/12/08 00:45:12;;;;;;;9.54;6.82;;;;;;;1.17;85.36;97724.59;2023816;80;20342;-82
2020/12/08 00:48:15;;;;;;;8.44;6.80;;;;;;;1.16;85.32;97725.44;2021846;80;20319;-82
2020/12/08 00:51:17;;;;;;;8.20;6.94;;;;;;;1.16;85.35;97728.00;2020972;80;20463;-82
2020/12/08 00:54:19;;;;;;;8.40;6.79;;;;;;;1.15;85.35;97718.63;2023625;80;20165;-82
2020/12/08 00:57:24;;;;;;;9.15;6.44;;;;;;;1.17;85.49;97716.94;2027634;80;20356;-81
2020/12/08 01:00:26;;;;;;;7.70;6.31;;;;;;;1.14;85.39;97716.06;2025097;80;20497;-82
2020/12/08 01:03:28;;;;;;;9.69;6.59;;;;;;;1.13;85.40;97716.91;2023239;80;20326;-82
2020/12/08 01:06:30;;;;;;;8.63;6.20;;;;;;;1.13;85.41;97712.66;2023806;80;20338;-82
2020/12/08 01:09:32;;;;;;;7.59;6.41;;;;;;;1.12;85.25;97716.06;2021122;80;20343;-82
2020/12/08 01:12:34;;;;;;;7.14;6.31;;;;;;;1.10;85.32;97714.34;2021994;80;20347;-82
2020/12/08 01:15:36;;;;;;;6.97;6.09;;;;;;;1.08;85.29;97714.34;2023352;80;20222;-83
2020/12/08 01:18:38;;;;;;;6.84;6.15;;;;;;;1.09;85.27;97725.41;2023776;80;20390;-82
2020/12/08 01:21:40;;;;;;;6.60;6.00;;;;;;;1.08;85.32;97716.88;2023322;80;20322;-82
2020/12/08 01:24:42;;;;;;;7.29;6.20;;;;;;;1.09;85.25;97725.41;2021752;80;20234;-81
2020/12/08 01:27:44;;;;;;;6.79;6.04;;;;;;;1.04;85.35;97733.03;2023236;80;20322;-82
2020/12/08 01:30:48;;;;;;;7.93;5.93;;;;;;;1.07;85.40;97729.63;2022869;80;20348;-82
2020/12/08 01:33:50;;;;;;;7.25;5.63;;;;;;;1.04;85.42;97725.34;2023318;80;20193;-82
2020/12/08 01:36:52;;;;;;;7.47;6.60;;;;;;;1.04;85.45;97727.91;2023390;80;20332;-82
2020/12/08 01:39:54;;;;;;;6.71;6.06;;;;;;;1.03;85.42;97733.00;2023484;80;20168;-83
2020/12/08 01:42:57;;;;;;;6.05;5.26;;;;;;;1.05;85.45;97726.22;2022782;80;20354;-83
2020/12/08 01:45:59;;;;;;;6.36;5.53;;;;;;;1.04;85.37;97724.50;2026328;80;20303;-83
2020/12/08 01:49:02;;;;;;;6.57;5.90;;;;;;;1.03;85.29;97733.00;2025753;80;20358;-82
2020/12/08 01:52:04;;;;;;;7.62;5.86;;;;;;;0.97;85.05;97733.84;2024971;80;20322;-81
2020/12/08 01:55:05;;;;;;;6.69;5.72;;;;;;;0.95;85.16;97724.47;2021869;80;20220;-82
2020/12/08 02:01:53;;;;;;;7.18;5.12;;;;;;;0.92;85.14;97737.22;2028401;69;20330;-80
2020/12/08 02:04:55;;;;;;;8.94;5.86;;;;;;;0.94;85.29;97730.41;2006358;80;20195;-80
2020/12/08 02:07:56;;;;;;;7.57;4.91;;;;;;;0.95;85.31;97734.69;2006644;80;20182;-80
2020/12/08 02:10:59;;;;;;;5.89;5.07;;;;;;;0.97;85.30;97738.09;2007599;81;21046;-80
2020/12/08 02:14:01;;;;;;;6.03;5.25;;;;;;;0.94;85.22;97733.81;2008096;81;20337;-80
2020/12/08 02:17:03;;;;;;;6.35;4.81;;;;;;;0.95;85.26;97737.25;2006817;81;20383;-79
2020/12/08 02:20:05;;;;;;;6.89;5.36;;;;;;;0.96;85.31;97734.69;2008842;81;20800;-80
2020/12/08 02:23:07;;;;;;;7.25;5.34;;;;;;;0.97;85.37;97733.84;2009930;81;20332;-81
2020/12/08 02:26:09;;;;;;;8.27;5.38;;;;;;;1.01;85.35;97737.25;2009805;81;20365;-80
2020/12/08 02:29:10;;;;;;;4.99;4.51;;;;;;;1.04;85.28;97738.13;2008443;80;20210;-80
2020/12/08 02:32:12;;;;;;;6.68;5.39;;;;;;;1.05;85.25;97744.09;2007734;81;20342;-80
2020/12/08 02:35:14;;;;;;;5.94;5.34;;;;;;;1.06;85.49;97745.81;2006569;81;20508;-80
2020/12/08 02:38:15;;;;;;;5.22;4.60;;;;;;;1.09;85.53;97743.31;2008843;81;20316;-79
2020/12/08 02:41:17;;;;;;;5.46;4.89;;;;;;;1.10;85.48;97750.97;2014098;81;20320;-78
2020/12/08 02:44:19;;;;;;;9.10;5.88;;;;;;;1.12;85.51;97745.88;2010714;81;20352;-79
2020/12/08 02:47:21;;;;;;;6.66;5.30;;;;;;;1.13;85.42;97748.44;2009665;81;20340;-80
2020/12/08 02:50:22;;;;;;;6.77;5.51;;;;;;;1.14;85.34;97745.03;2010369;81;20186;-80
2020/12/08 02:53:24;;;;;;;8.02;5.79;;;;;;;1.14;85.25;97755.25;2008421;81;20199;-80
2020/12/08 02:56:26;;;;;;;6.63;5.50;;;;;;;1.14;85.17;97747.59;2010601;81;20181;-80
2020/12/08 02:59:28;;;;;;;6.65;5.45;;;;;;;1.12;85.20;97754.38;2011967;81;20342;-81
2020/12/08 03:02:30;;;;;;;6.06;5.13;;;;;;;1.15;85.19;97751.00;2018997;81;20312;-81
2020/12/08 03:05:33;;;;;;;6.37;5.09;;;;;;;1.16;85.16;97750.16;2014036;81;20193;-81
2020/12/08 03:08:34;;;;;;;6.84;5.16;;;;;;;1.19;85.16;97750.16;2011496;81;20219;-80
2020/12/08 03:11:36;;;;;;;8.69;5.22;;;;;;;1.19;84.98;97748.47;2010166;81;20328;-80
2020/12/08 03:14:39;;;;;;;6.15;5.35;;;;;;;1.17;84.90;97737.38;2008726;81;20320;-80
2020/12/08 03:17:40;;;;;;;8.88;5.39;;;;;;;1.21;84.94;97736.53;2009748;81;20394;-80
2020/12/08 03:20:42;;;;;;;6.99;5.24;;;;;;;1.25;84.94;97739.97;2009255;81;20211;-80
2020/12/08 03:23:43;;;;;;;7.79;5.20;;;;;;;1.25;84.88;97737.41;2007653;81;20361;-80
2020/12/08 03:26:45;;;;;;;7.05;5.60;;;;;;;1.27;84.88;97727.22;2007873;81;20437;-80
2020/12/08 03:29:47;;;;;;;7.08;5.28;;;;;;;1.27;84.80;97727.22;2009953;80;20352;-80
2020/12/08 03:32:48;;;;;;;6.59;5.09;;;;;;;1.26;84.77;97726.38;2009564;81;20240;-79
2020/12/08 03:35:51;;;;;;;7.21;6.00;;;;;;;1.27;84.80;97715.28;2008697;81;20231;-80
2020/12/08 03:38:52;;;;;;;7.52;5.62;;;;;;;1.27;84.72;97715.28;2008497;81;20691;-80
2020/12/08 03:41:59;;;;;;;8.21;5.94;;;;;;;1.28;84.60;97718.69;2010194;81;20199;-80
2020/12/08 03:45:01;;;;;;;6.99;5.56;;;;;;;1.26;84.57;97723.81;2008457;81;20197;-80
2020/12/08 03:48:02;;;;;;;8.20;5.50;;;;;;;1.23;84.65;97713.53;2008603;81;20348;-81
2020/12/08 03:51:04;;;;;;;6.93;5.47;;;;;;;1.21;84.66;97720.34;2008476;81;20336;-80
2020/12/08 03:54:06;;;;;;;7.88;5.24;;;;;;;1.20;84.92;97722.06;2008152;80;20328;-80
2020/12/08 03:57:07;;;;;;;8.46;5.96;;;;;;;1.24;84.93;97722.91;2008415;81;20765;-80
2020/12/08 04:00:09;;;;;;;7.50;5.84;;;;;;;1.25;84.88;97724.63;2009416;81;20336;-80
2020/12/08 04:03:11;;;;;;;7.14;5.79;;;;;;;1.28;84.88;97728.94;2008536;81;20437;-80
2020/12/08 04:06:13;;;;;;;7.35;5.75;;;;;;;1.29;84.85;97718.69;2007979;81;20723;-80
2020/12/08 04:09:15;;;;;;;6.47;5.81;;;;;;;1.32;84.86;97713.59;2007499;81;20335;-80
2020/12/08 04:12:17;;;;;;;9.30;5.74;;;;;;;1.35;84.81;97715.31;2005014;81;20816;-79
2020/12/08 04:15:18;;;;;;;6.20;5.47;;;;;;;1.35;84.77;97722.97;2005258;81;20207;-79
2020/12/08 04:18:20;;;;;;;7.85;5.89;;;;;;;1.36;84.85;97712.75;2007038;81;20381;-80
2020/12/08 04:21:26;;;;;;;7.72;6.08;;;;;;;1.38;84.79;97718.72;2009285;81;20312;-80
2020/12/08 04:24:28;;;;;;;6.65;5.32;;;;;;;1.41;84.76;97712.78;2007918;81;20306;-80
2020/12/08 04:27:29;;;;;;;6.54;5.21;;;;;;;1.43;84.66;97723.84;2009117;81;20348;-80
2020/12/08 04:30:36;;;;;;;7.63;5.89;;;;;;;1.44;84.60;97728.16;2125534;69;20537;-81
2020/12/08 04:33:41;;;;;;;7.57;5.39;;;;;;;1.46;84.58;97727.31;2029987;80;20419;-81
2020/12/08 04:36:43;;;;;;;7.30;5.88;;;;;;;1.49;84.61;97726.47;2028758;80;20199;-81
2020/12/08 04:39:45;;;;;;;7.89;5.89;;;;;;;1.49;84.67;97727.31;2030487;80;20305;-81
2020/12/08 04:42:49;;;;;;;9.25;6.24;;;;;;;1.50;84.70;97726.47;2027431;80;20364;-79
2020/12/08 04:45:51;;;;;;;9.11;6.50;;;;;;;1.52;84.62;97727.31;2027018;80;20321;-80
2020/12/08 04:48:53;;;;;;;7.61;5.84;;;;;;;1.53;84.59;97720.50;2028407;80;20848;-80
2020/12/08 04:51:55;;;;;;;7.16;5.75;;;;;;;1.57;84.53;97724.78;2024646;80;20324;-80
2020/12/08 04:54:57;;;;;;;8.21;5.95;;;;;;;1.56;84.46;97727.34;2024708;80;20324;-80
2020/12/08 04:58:01;;;;;;;6.90;5.53;;;;;;;1.57;84.44;97736.72;2025552;80;20328;-80
2020/12/08 05:01:03;;;;;;;7.26;5.54;;;;;;;1.56;84.41;97722.22;2018986;80;20338;-80
2020/12/08 05:04:05;;;;;;;8.35;6.07;;;;;;;1.55;84.44;97723.94;2019191;80;20378;-80
2020/12/08 05:07:08;;;;;;;7.56;5.63;;;;;;;1.56;84.43;97724.78;2017994;80;20341;-78
2020/12/08 05:10:11;;;;;;;7.71;5.90;;;;;;;1.54;84.42;97724.78;2017982;80;20690;-79
2020/12/08 05:13:18;;;;;;;6.79;5.80;;;;;;;1.54;84.45;97732.44;2018402;80;20320;-78
2020/12/08 05:16:20;;;;;;;11.16;7.43;;;;;;;1.54;84.47;97724.78;2017948;80;20333;-78
2020/12/08 05:19:21;;;;;;;16.54;9.52;;;;;;;1.55;84.53;97721.38;2018593;80;20317;-78
2020/12/08 05:22:23;;;;;;;8.57;6.61;;;;;;;1.54;84.56;97719.66;2019529;80;20702;-79
2020/12/08 05:25:27;;;;;;;9.60;6.39;;;;;;;1.54;84.76;97721.38;2017835;80;20332;-79
2020/12/08 05:28:28;;;;;;;9.15;6.72;;;;;;;1.55;84.85;97713.69;2018930;80;20381;-79
2020/12/08 05:31:30;;;;;;;8.57;6.59;;;;;;;1.55;84.92;97723.06;2017956;80;20435;-79
2020/12/08 05:34:34;;;;;;;9.01;6.74;;;;;;;1.54;85.04;97727.34;2018245;80;20794;-79
2020/12/08 05:37:41;;;;;;;9.10;6.44;;;;;;;1.52;85.20;97722.22;2020776;80;20319;-79
2020/12/08 05:40:44;;;;;;;8.80;6.59;;;;;;;1.54;85.28;97724.78;2018440;80;20340;-79
2020/12/08 05:43:47;;;;;;;9.16;6.39;;;;;;;1.56;85.33;97725.63;2018229;80;20447;-77
2020/12/08 05:46:49;;;;;;;7.51;6.43;;;;;;;1.57;85.34;97726.47;2018241;80;20348;-77
2020/12/08 05:50:00;;;;;;;8.98;6.43;;;;;;;1.57;85.40;97732.47;2018707;80;20337;-77
2020/12/08 05:53:02;;;;;;;8.15;6.25;;;;;;;1.57;85.40;97729.91;2017957;80;20339;-77
2020/12/08 05:56:08;;;;;;;10.61;6.50;;;;;;;1.58;85.39;97736.72;2017275;80;20366;-78
2020/12/08 05:59:10;;;;;;;9.76;6.68;;;;;;;1.58;85.32;97736.72;2018436;80;20313;-79
2020/12/08 06:02:12;;;;;;;10.40;7.09;;;;;;;1.55;85.26;97736.72;2029725;80;20309;-81
2020/12/08 06:05:30;;;;;;;10.10;6.28;;;;;;;1.49;85.35;97740.09;2029171;80;20305;-86
2020/12/08 06:08:45;;;;;;;8.91;6.34;;;;;;;1.48;85.38;97732.44;2032165;80;20325;-80
2020/12/08 06:11:47;;;;;;;9.44;6.84;;;;;;;1.49;85.64;97736.69;2030717;80;20305;-83
2020/12/08 06:14:49;;;;;;;11.02;6.93;;;;;;;1.49;85.71;97740.09;2028086;80;20361;-82
2020/12/08 06:17:51;;;;;;;9.77;6.88;;;;;;;1.48;85.78;97732.44;2027277;80;20301;-82
2020/12/08 06:20:53;;;;;;;9.71;6.78;;;;;;;1.51;86.09;97738.41;2028543;80;20330;-80
2020/12/08 06:24:00;;;;;;;9.51;6.50;;;;;;;1.56;86.24;97735.00;2031198;80;20304;-81
2020/12/08 06:27:02;;;;;;;9.16;6.46;;;;;;;1.57;86.02;97735.00;2027790;80;20285;-82
2020/12/08 06:30:03;;;;;;;9.10;6.44;;;;;;;1.58;86.00;97739.28;2032731;80;20329;-80
2020/12/08 06:33:05;;;;;;;8.34;6.70;;;;;;;1.59;86.00;97751.22;2029280;80;20309;-81
2020/12/08 06:36:07;;;;;;;8.18;6.40;;;;;;;1.63;86.08;97747.84;2027925;80;20333;-81
2020/12/08 06:39:08;;;;;;;7.79;6.24;;;;;;;1.64;85.95;97744.44;2028284;80;20370;-82
2020/12/08 06:42:12;;;;;;;9.71;7.06;;;;;;;1.64;85.83;97758.94;2032769;80;20305;-82
2020/12/08 06:45:16;;;;;;;7.93;6.61;;;;;;;1.63;85.90;97750.41;2033419;80;20305;-82
2020/12/08 06:48:19;;;;;;;8.00;6.34;;;;;;;1.64;85.90;97757.22;2029794;80;20366;-82
2020/12/08 06:51:21;;;;;;;9.13;6.76;;;;;;;1.67;85.85;97764.91;2030472;80;20343;-83
2020/12/08 06:54:24;;;;;;;9.64;7.24;;;;;;;1.68;85.83;97756.38;2028847;80;20313;-81
2020/12/08 06:57:26;;;;;;;9.19;6.59;;;;;;;1.71;85.84;97760.66;2030747;80;20317;-84
2020/12/08 07:03:40;;;;;;;8.32;6.54;;;;;;;1.73;85.88;97764.06;2146917;69;20173;-84
2020/12/08 07:06:45;;;;;;;7.85;6.64;;;;;;;1.74;85.78;97763.22;2102343;69;20360;-81
2020/12/08 07:09:47;;;;;;;9.75;7.66;;;;;;;1.78;85.73;97762.38;2100927;69;20815;-79
2020/12/08 07:12:51;;;;;;;8.98;6.65;;;;;;;1.77;85.71;97771.75;2017917;80;20355;-80
2020/12/08 07:19:18;;;;;;;10.20;7.49;;;;;;;1.79;85.81;97784.56;2148111;69;20349;-84
2020/12/08 07:26:16;;;;;;;10.26;6.97;;;;;;;1.87;85.86;97784.59;2061314;70;20320;-80
2020/12/08 07:29:18;;;;;;;11.18;7.65;;;;;;;1.89;85.76;97785.47;2031143;80;20315;-80
2020/12/08 07:32:27;;;;;;;8.90;7.09;;;;;;;1.89;85.80;97791.44;2025026;80;20846;-79
2020/12/08 07:35:35;;;;;;;10.14;8.34;;;;;;;1.90;85.83;97795.72;2033813;80;20280;-82
2020/12/08 07:38:39;;;;;;;10.84;8.75;;;;;;;1.93;85.93;97795.72;2032484;80;20220;-81
2020/12/08 07:41:41;;;;;;;9.01;7.34;;;;;;;1.93;85.57;97799.97;2032208;80;20311;-80
2020/12/08 07:44:54;;;;;;;10.63;8.20;;;;;;;1.92;85.71;97803.38;2028536;80;20854;-79
2020/12/08 07:47:59;;;;;;;11.88;8.15;;;;;;;1.96;85.71;97800.84;2028202;80;20736;-76
2020/12/08 07:51:00;;;;;;;10.18;8.46;;;;;;;1.93;85.65;97805.94;2030091;80;20324;-83
2020/12/08 07:54:05;;;;;;;11.68;8.44;;;;;;;1.92;85.86;97804.25;2034451;80;20174;-83
2020/12/08 07:57:06;;;;;;;9.82;7.97;;;;;;;1.96;85.92;97805.97;2035106;80;20336;-83
2020/12/08 08:00:08;;;;;;;12.24;9.13;;;;;;;2.02;85.86;97808.56;2031750;80;20185;-79
2020/12/08 08:06:38;;;;;;;10.96;7.70;;;;;;;2.07;85.80;97806.00;2043099;69;20288;-80
2020/12/08 08:09:40;;;;;;;10.65;8.31;;;;;;;2.12;85.86;97814.56;2028290;80;20578;-79
2020/12/08 08:12:41;;;;;;;10.65;8.11;;;;;;;2.14;85.71;97815.41;2027502;79;20331;-79
2020/12/08 08:15:43;;;;;;;12.38;8.31;;;;;;;2.17;85.74;97812.03;2027074;80;20351;-79
2020/12/08 08:18:45;;;;;;;10.58;8.07;;;;;;;2.20;85.67;97819.72;2035667;79;20339;-82
2020/12/08 08:21:46;;;;;;;10.65;8.09;;;;;;;2.19;85.69;97810.31;2039856;80;20166;-82
2020/12/08 08:24:48;;;;;;;11.63;8.85;;;;;;;2.21;85.63;97812.03;2043920;80;20331;-84
2020/12/08 08:27:49;;;;;;;13.89;8.80;;;;;;;2.18;85.44;97812.03;2045115;80;20295;-83
2020/12/08 08:30:52;;;;;;;11.80;8.85;;;;;;;2.19;85.54;97808.63;2032924;80;20913;-78
2020/12/08 08:33:54;;;;;;;12.01;8.99;;;;;;;2.19;85.44;97810.31;2026837;79;20344;-79
2020/12/08 08:36:56;;;;;;;10.65;8.29;;;;;;;2.18;85.51;97801.78;2026711;80;20338;-80
2020/12/08 08:39:58;;;;;;;11.82;9.23;;;;;;;2.20;85.47;97810.34;2034076;79;20445;-80
2020/12/08 08:43:00;;;;;;;12.90;9.47;;;;;;;2.17;85.52;97809.47;2055429;69;20341;-79
2020/12/08 08:46:02;;;;;;;14.42;9.09;;;;;;;2.15;85.52;97806.03;2028092;80;20167;-81
2020/12/08 08:49:04;;;;;;;10.69;8.44;;;;;;;2.17;85.70;97804.34;2028427;80;20183;-81
2020/12/08 08:52:05;;;;;;;11.04;8.94;;;;;;;2.17;85.63;97810.31;2032068;80;20183;-81
2020/12/08 08:55:11;;;;;;;12.57;9.45;;;;;;;2.19;85.85;97813.75;2030981;80;20315;-82
2020/12/08 08:58:13;;;;;;;13.11;10.14;;;;;;;2.22;85.82;97816.31;2031491;80;20347;-82
2020/12/08 09:01:15;;;;;;;11.97;9.11;;;;;;;2.25;85.85;97816.31;2033288;80;20316;-82
2020/12/08 09:04:20;;;;;;;12.50;9.44;;;;;;;2.29;85.87;97823.16;2032766;80;20167;-83
2020/12/08 09:07:22;;;;;;;10.68;8.41;;;;;;;2.35;85.84;97837.69;2034972;80;20347;-82
2020/12/08 09:10:23;;;;;;;12.68;8.99;;;;;;;2.43;85.87;97830.88;2035301;80;20316;-82
2020/12/08 09:13:25;;;;;;;12.11;8.91;;;;;;;2.49;85.80;97837.72;2034094;80;20336;-83
2020/12/08 09:16:27;;;;;;;12.48;9.60;;;;;;;2.53;85.70;97842.00;2034847;80;20174;-84
2020/12/08 09:19:28;;;;;;;12.37;9.59;;;;;;;2.58;85.81;97851.41;2034145;80;20280;-84
2020/12/08 09:22:30;;;;;;;16.29;10.50;;;;;;;2.63;85.74;97844.56;2033963;80;20200;-82
2020/12/08 09:25:33;;;;;;;13.82;9.18;;;;;;;2.70;85.63;97851.44;2032620;80;20347;-82
2020/12/08 09:28:34;;;;;;;12.21;9.69;;;;;;;2.78;85.66;97853.16;2033990;80;20325;-81
2020/12/08 09:31:36;;;;;;;12.59;9.71;;;;;;;2.84;85.52;97859.13;2031194;80;20365;-81
2020/12/08 09:34:38;;;;;;;11.28;9.28;;;;;;;2.91;85.58;97853.19;2032088;79;20171;-81
2020/12/08 09:37:40;;;;;;;13.57;9.86;;;;;;;3.07;85.58;97864.31;2030258;80;20205;-82
2020/12/08 09:40:42;;;;;;;13.19;9.45;;;;;;;3.19;85.52;97869.41;2033428;80;20389;-81
2020/12/08 09:43:44;;;;;;;12.34;9.24;;;;;;;3.29;85.27;97867.72;2031652;80;20323;-81
2020/12/08 09:46:45;;;;;;;12.11;9.39;;;;;;;3.39;85.10;97869.41;2028408;80;20324;-81
2020/12/08 09:49:47;;;;;;;14.89;10.61;;;;;;;3.44;84.73;97861.72;2029768;80;20857;-81
2020/12/08 09:52:49;;;;;;;12.54;9.70;;;;;;;3.46;84.44;97862.59;2029532;80;20353;-81
2020/12/08 09:55:51;;;;;;;14.80;10.35;;;;;;;3.50;84.34;97862.56;2030091;80;20323;-80
2020/12/08 09:58:53;;;;;;;13.59;10.01;;;;;;;3.52;84.21;97863.41;2029785;80;20342;-82
2020/12/08 10:02:03;;;;;;;13.23;9.70;;;;;;;3.56;84.09;97866.84;2025874;80;20337;-81
2020/12/08 10:05:05;;;;;;;12.65;10.43;;;;;;;3.60;84.05;97855.72;2023398;80;20434;-80
2020/12/08 10:11:40;;;;;;;13.79;9.49;;;;;;;3.74;83.75;97853.13;2036747;69;20447;-80
2020/12/08 10:14:43;;;;;;;14.15;10.43;;;;;;;3.81;83.72;97865.09;2023291;80;20304;-80
2020/12/08 10:17:44;;;;;;;14.84;10.26;;;;;;;3.81;83.54;97877.94;2022281;80;20345;-80
2020/12/08 10:20:46;;;;;;;15.96;11.15;;;;;;;3.82;83.29;97870.22;2023995;80;20377;-81
2020/12/08 10:23:49;;;;;;;15.39;11.50;;;;;;;3.79;83.10;97867.66;2026939;80;20376;-81
2020/12/08 10:26:52;;;;;;;14.09;11.52;;;;;;;3.79;83.09;97867.66;2026108;80;20355;-80
2020/12/08 10:29:53;;;;;;;12.27;9.60;;;;;;;3.83;83.06;97869.38;2024274;80;20896;-80
2020/12/08 10:32:56;;;;;;;13.51;10.50;;;;;;;3.84;82.91;97867.66;2025369;80;20336;-79
2020/12/08 10:35:57;;;;;;;16.15;11.63;;;;;;;3.82;82.99;97879.63;2024043;80;20381;-81
2020/12/08 10:38:59;;;;;;;14.29;10.84;;;;;;;3.86;83.03;97878.78;2025217;80;20324;-80
2020/12/08 10:42:01;;;;;;;16.80;11.02;;;;;;;3.89;83.11;97871.06;2024849;80;20817;-80
2020/12/08 10:45:02;;;;;;;16.84;11.24;;;;;;;3.92;83.04;97874.47;2025104;80;20315;-83
2020/12/08 10:48:04;;;;;;;15.79;11.57;;;;;;;3.95;82.86;97876.19;2025428;80;20324;-80
2020/12/08 10:51:06;;;;;;;16.74;11.76;;;;;;;4.02;82.80;97885.56;2023961;80;20444;-80
2020/12/08 10:54:08;;;;;;;15.76;11.64;;;;;;;4.13;82.89;97882.97;2031052;80;20328;-82
2020/12/08 10:57:10;;;;;;;15.04;10.60;;;;;;;4.22;82.91;97885.50;2024017;80;21114;-79
2020/12/08 11:00:12;;;;;;;13.14;10.68;;;;;;;4.31;82.58;97876.91;2025682;79;20337;-81
2020/12/08 11:03:13;;;;;;;14.59;11.57;;;;;;;4.34;82.07;97882.91;2028055;80;20342;-81
2020/12/08 11:06:19;;;;;;;15.70;11.51;;;;;;;4.34;81.71;97882.06;2028397;80;20906;-80
2020/12/08 11:09:21;;;;;;;15.04;10.84;;;;;;;4.34;81.59;97882.06;2030737;80;20385;-82
2020/12/08 11:12:23;;;;;;;15.81;10.98;;;;;;;4.36;81.57;97886.31;2030378;80;20320;-81
2020/12/08 11:15:24;;;;;;;15.65;11.45;;;;;;;4.38;81.49;97879.44;2030421;80;20353;-81
2020/12/08 11:18:26;;;;;;;17.70;11.27;;;;;;;4.42;81.45;97872.56;2029913;80;20355;-82
2020/12/08 11:21:31;;;;;;;17.41;11.54;;;;;;;4.41;81.30;97869.16;2033121;80;20320;-81
2020/12/08 11:24:33;;;;;;;17.54;12.75;;;;;;;4.45;81.39;97877.69;2031860;80;20296;-81
2020/12/08 11:27:35;;;;;;;16.52;11.94;;;;;;;4.45;81.24;97877.69;2030013;80;20323;-81
2020/12/08 11:30:36;;;;;;;13.24;10.07;;;;;;;4.40;81.15;97874.31;2031064;80;20995;-82
2020/12/08 11:33:38;;;;;;;15.65;10.91;;;;;;;4.39;80.92;97875.16;2031571;80;20301;-82
2020/12/08 11:36:39;;;;;;;14.76;10.96;;;;;;;4.34;81.02;97876.91;2033362;80;20319;-83
2020/12/08 11:39:41;;;;;;;15.32;12.13;;;;;;;4.33;81.15;97881.19;2032548;80;20337;-83
2020/12/08 11:42:43;;;;;;;16.39;11.27;;;;;;;4.29;81.14;97886.34;2033387;80;20357;-82
2020/12/08 11:45:46;;;;;;;15.13;11.20;;;;;;;4.31;81.42;97882.94;2037910;80;20315;-83
2020/12/08 11:48:52;;;;;;;14.23;11.05;;;;;;;4.34;81.52;97888.03;2034772;80;20312;-83
2020/12/08 11:51:54;;;;;;;13.54;10.65;;;;;;;4.40;81.79;97889.72;2034605;80;20304;-83
2020/12/08 11:54:55;;;;;;;14.54;11.26;;;;;;;4.39;81.56;97881.16;2032902;80;20337;-82
2020/12/08 11:57:57;;;;;;;13.49;10.24;;;;;;;4.41;81.56;97882.00;2037791;80;20365;-82
2020/12/08 12:00:59;;;;;;;14.90;11.44;;;;;;;4.44;81.60;97887.13;2032359;80;20315;-81
2020/12/08 12:04:00;;;;;;;15.99;11.44;;;;;;;4.43;81.61;97888.00;2027245;80;20346;-81
2020/12/08 12:07:02;;;;;;;15.68;10.55;;;;;;;4.44;81.63;97888.84;2028042;80;20341;-81
2020/12/08 12:10:04;;;;;;;15.70;10.91;;;;;;;4.48;81.60;97893.09;2030830;80;20369;-81
2020/12/08 12:13:06;;;;;;;15.30;11.21;;;;;;;4.53;81.56;97883.69;2028542;80;20332;-81
2020/12/08 12:16:08;;;;;;;16.15;11.40;;;;;;;4.54;81.44;97881.09;2029933;80;20265;-84
2020/12/08 12:19:09;;;;;;;15.75;11.20;;;;;;;4.54;81.44;97888.81;2033913;79;20280;-82
2020/12/08 12:22:11;;;;;;;15.07;11.32;;;;;;;4.55;81.47;97887.09;2025803;80;20334;-80
2020/12/08 12:25:13;;;;;;;14.79;11.30;;;;;;;4.54;81.56;97890.53;2027505;80;20323;-81
2020/12/08 12:28:14;;;;;;;15.35;10.91;;;;;;;4.55;81.58;97894.81;2025791;80;20789;-81
2020/12/08 12:31:16;;;;;;;13.61;10.95;;;;;;;4.59;81.56;97891.34;2023847;80;20355;-80
2020/12/08 12:34:18;;;;;;;15.38;11.51;;;;;;;4.59;81.11;97885.34;2025167;80;20712;-80
2020/12/08 12:37:20;;;;;;;18.51;11.63;;;;;;;4.59;81.27;97878.50;2028934;80;20343;-81
2020/12/08 12:40:22;;;;;;;13.89;11.51;;;;;;;4.55;80.84;97871.66;2028991;80;20340;-81
2020/12/08 12:43:23;;;;;;;15.77;11.59;;;;;;;4.58;80.86;97865.66;2032871;80;20304;-83
2020/12/08 12:46:26;;;;;;;14.59;11.64;;;;;;;4.58;80.86;97857.94;2035472;80;20300;-82
2020/12/08 12:52:53;;;;;;;17.95;11.89;;;;;;;4.60;80.85;97844.22;2257658;69;20357;-82
2020/12/08 12:55:55;;;;;;;15.63;11.26;;;;;;;4.65;81.15;97834.75;2037220;79;20314;-81
2020/12/08 12:58:57;;;;;;;15.40;10.79;;;;;;;4.71;80.94;97841.59;2036938;79;20315;-80
2020/12/08 13:01:59;;;;;;;16.15;11.59;;;;;;;4.69;80.54;97845.91;2037097;79;20311;-81
2020/12/08 13:05:01;;;;;;;13.65;10.38;;;;;;;4.69;80.55;97849.31;2032502;79;20424;-81
2020/12/08 13:08:03;;;;;;;13.35;10.38;;;;;;;4.73;80.67;97856.13;2033135;79;20348;-80
2020/12/08 13:11:13;;;;;;;13.40;10.75;;;;;;;4.76;80.76;97862.97;2032674;79;20299;-80
2020/12/08 13:14:14;;;;;;;13.60;9.75;;;;;;;4.82;81.04;97865.50;2034378;79;20340;-81
2020/12/08 13:17:16;;;;;;;12.18;9.43;;;;;;;4.83;80.72;97867.22;2035552;79;20338;-80
2020/12/08 13:20:18;;;;;;;11.52;9.61;;;;;;;4.86;80.61;97877.50;2033831;79;20311;-81
2020/12/08 13:23:19;;;;;;;11.91;9.21;;;;;;;4.91;80.60;97877.47;2037241;79;20364;-81
2020/12/08 13:26:21;;;;;;;11.89;9.94;;;;;;;4.94;80.60;97886.00;2036785;79;20302;-80
2020/12/08 13:29:23;;;;;;;13.25;10.30;;;;;;;4.97;80.58;97887.69;2033785;79;20344;-80
2020/12/08 13:32:24;;;;;;;11.91;9.48;;;;;;;4.96;80.49;97889.41;2034321;79;20295;-80
2020/12/08 13:35:26;;;;;;;13.65;10.06;;;;;;;4.94;80.05;97892.88;2033596;79;20326;-84
2020/12/08 13:38:27;;;;;;;13.20;10.57;;;;;;;4.92;80.25;97889.47;2036005;79;20362;-80
2020/12/08 13:41:29;;;;;;;12.06;10.18;;;;;;;4.89;80.31;97900.63;2034198;79;20338;-81
2020/12/08 13:44:31;;;;;;;14.55;10.34;;;;;;;4.83;80.42;97908.34;2035289;79;20287;-80
2020/12/08 13:47:32;;;;;;;13.70;10.80;;;;;;;4.76;80.58;97915.25;2035757;79;20436;-80
2020/12/08 13:50:34;;;;;;;15.49;10.46;;;;;;;4.73;80.78;97910.13;2031160;79;20315;-80
2020/12/08 13:53:36;;;;;;;16.20;10.51;;;;;;;4.74;81.13;97916.97;2030471;79;20863;-80
2020/12/08 13:56:37;;;;;;;12.80;10.79;;;;;;;4.76;81.21;97920.41;2038196;79;20287;-82
2020/12/08 13:59:41;;;;;;;12.46;9.88;;;;;;;4.77;81.32;97923.81;2029276;79;20330;-79
2020/12/08 14:02:42;;;;;;;13.40;10.45;;;;;;;4.71;81.54;97922.16;2028938;79;20307;-79
2020/12/08 14:05:44;;;;;;;14.34;10.32;;;;;;;4.70;81.66;97917.88;2027185;79;20841;-80
2020/12/08 14:08:46;;;;;;;13.57;10.50;;;;;;;4.71;81.45;97922.16;2028743;79;20327;-79
2020/12/08 14:11:49;;;;;;;13.46;10.38;;;;;;;4.70;81.39;97920.44;2027058;79;20315;-79
2020/12/08 14:14:50;;;;;;;14.44;10.86;;;;;;;4.72;81.32;97926.44;2028549;79;20343;-79
2020/12/08 14:17:58;;;;;;;13.95;10.65;;;;;;;4.69;81.33;97936.72;2027905;79;20850;-78
2020/12/08 14:20:59;;;;;;;13.65;10.50;;;;;;;4.64;81.40;97938.44;2028431;79;20364;-78
2020/12/08 14:24:11;;;;;;;15.35;11.80;;;;;;;4.65;81.51;97942.72;2027196;79;20334;-78
2020/12/08 14:27:14;;;;;;;12.26;10.38;;;;;;;4.65;81.70;97941.88;2027294;79;20327;-79
2020/12/08 14:30:15;;;;;;;15.94;11.74;;;;;;;4.64;81.90;97937.59;2028257;79;20326;-78
2020/12/08 14:33:17;;;;;;;15.63;10.96;;;;;;;4.65;81.91;97952.16;2027177;79;20690;-73
2020/12/08 14:36:19;;;;;;;16.77;11.36;;;;;;;4.66;81.93;97959.00;2027561;79;20344;-73
2020/12/08 14:39:20;;;;;;;15.77;10.79;;;;;;;4.64;82.08;97964.16;2027348;79;20335;-73
2020/12/08 14:42:22;;;;;;;13.90;10.81;;;;;;;4.64;82.07;97966.72;2028960;79;20318;-72
2020/12/08 14:45:24;;;;;;;17.13;12.24;;;;;;;4.64;82.09;97966.72;2027065;79;20318;-73